Dell City, Texas
Current Conditions -  °F | °C
As of 12:51 AM on Friday 31 Oct 2014 (Local Time) from KGDP Reporting Station
Broken Clouds Broken Clouds  
Wind Chill: 13°   Ceiling: 2400
Heat Index: 13°   Visibility: 10mi
Dew Point:   Wind: 40mph
Humidity: 77%   Direction: 50°NE
Pressure: 30.34"   Gusts: NA
Location:  31.94°N, 105.2°W
Report Text: KGDP 310651Z AUTO 05035KT 10SM FEW019 BKN024 13/09 A3034 RMK AO2 PK WND 04039/0556 SLP210 T01280089 402560111
Loading
Personal Weather Stations






























Interactive Weather Map
Tropical Storm Tracking
New forecast layout! Learn more

10-Day Weather Forecast

Advertisements
Track Severe Weather on mobile